Time;durP1;ratioP1;P1;durP2;ratioP2;P2;SDS_P1;SDS_P2;PMS_P1;PMS_P2;Temp;Humidity;BMP_temperature;BMP_pressure;BME280_temperature;BME280_humidity;BME280_pressure;Samples;Min_cycle;Max_cycle;Signal;HPM_P1;HPM_P2
2022/11/16 00:01:04;;;;;;;;;1.00;1.00;;;;;11.36;76.16;99530.31;4977447;28;45341;-71
2022/11/16 00:03:31;;;;;;;;;1.67;1.67;;;;;11.96;76.75;99636.00;4993035;28;45275;-72
2022/11/16 00:05:58;;;;;;;;;4.33;3.00;;;;;11.95;76.49;99628.19;4977462;28;47067;-72
2022/11/16 00:08:24;;;;;;;;;5.00;3.00;;;;;11.67;76.66;99604.78;4977868;28;45552;-71
2022/11/16 00:10:49;;;;;;;;;4.00;3.67;;;;;11.90;77.21;99633.25;4977537;28;45246;-72
2022/11/16 00:13:15;;;;;;;;;3.33;1.33;;;;;11.75;77.15;99623.34;4977871;28;45313;-71
2022/11/16 00:15:40;;;;;;;;;4.67;3.67;;;;;11.81;76.87;99633.31;4992717;28;47473;-70
2022/11/16 00:18:05;;;;;;;;;2.00;2.00;;;;;10.89;76.68;99472.00;4975255;28;62135;-71
2022/11/16 00:20:31;;;;;;;;;6.00;3.67;;;;;11.71;77.06;99624.69;4977531;28;45449;-72
2022/11/16 00:22:56;;;;;;;;;4.00;2.67;;;;;11.33;76.98;99565.25;4977788;28;45180;-71
2022/11/16 00:25:21;;;;;;;;;3.00;2.00;;;;;11.79;77.78;99634.47;4992359;28;47292;-71
2022/11/16 00:27:47;;;;;;;;;3.67;2.00;;;;;11.73;77.48;99646.66;4977714;28;45350;-72
2022/11/16 00:30:12;;;;;;;;;2.00;1.00;;;;;11.03;77.42;99526.25;4977594;28;45379;-71
2022/11/16 00:32:38;;;;;;;;;2.00;2.00;;;;;11.51;77.42;99608.38;4977597;28;45318;-71
2022/11/16 00:35:03;;;;;;;;;3.33;3.33;;;;;11.30;77.63;99591.41;4977253;28;51870;-70
2022/11/16 00:37:28;;;;;;;;;2.33;2.33;;;;;11.67;78.06;99635.91;4981807;28;45369;-71
2022/11/16 00:39:54;;;;;;;;;3.33;3.00;;;;;11.52;77.76;99635.81;4981237;28;45215;-72
2022/11/16 00:42:19;;;;;;;;;3.67;2.67;;;;;11.58;77.88;99635.09;4980115;28;45529;-71
2022/11/16 00:44:44;;;;;;;;;4.33;3.33;;;;;11.52;78.26;99627.84;4978756;28;45930;-71
2022/11/16 00:47:10;;;;;;;;;1.33;1.00;;;;;11.52;78.16;99617.19;4980624;28;45329;-71
2022/11/16 00:49:37;;;;;;;;;3.33;2.00;;;;;11.55;78.22;99625.66;4980347;28;45275;-71
2022/11/16 00:52:02;;;;;;;;;4.00;4.00;;;;;11.43;77.93;99604.97;4980584;28;45510;-72
2022/11/16 00:54:28;;;;;;;;;5.00;2.00;;;;;11.50;78.20;99635.19;4978748;28;48574;-71
2022/11/16 00:56:53;;;;;;;;;3.00;3.00;;;;;11.26;78.07;99596.25;4980207;28;45314;-72
2022/11/16 00:59:18;;;;;;;;;1.33;1.00;;;;;10.80;78.12;99512.91;4980390;28;45428;-72
2022/11/16 01:01:44;;;;;;;;;4.33;3.00;;;;;11.06;77.69;99555.97;4980476;28;45249;-71
2022/11/16 01:04:09;;;;;;;;;4.33;2.00;;;;;11.31;77.22;99590.41;4980030;28;46570;-73
2022/11/16 01:06:34;;;;;;;;;3.33;3.00;;;;;11.61;77.47;99641.91;4980051;28;45410;-71
2022/11/16 01:09:00;;;;;;;;;1.33;1.00;;;;;10.72;77.34;99511.13;4980673;28;45638;-71
2022/11/16 01:14:10;;;;;;;;;4.00;4.00;;;;;11.61;77.08;99641.91;4979267;28;45787;-72
2022/11/16 01:16:36;;;;;;;;;3.00;3.00;;;;;11.17;77.50;99568.84;4980025;28;45303;-72
2022/11/16 01:19:01;;;;;;;;;4.67;3.00;;;;;11.25;77.31;99563.50;4979982;28;45222;-72
2022/11/16 01:21:27;;;;;;;;;3.00;2.00;;;;;11.58;77.45;99627.94;4979659;28;45621;-71
2022/11/16 01:23:53;;;;;;;;;4.67;4.00;;;;;11.61;77.73;99626.75;4980033;28;45996;-71
2022/11/16 01:26:19;;;;;;;;;4.00;2.33;;;;;11.12;77.46;99551.78;4979891;28;45258;-73
2022/11/16 01:28:44;;;;;;;;;3.00;1.00;;;;;11.03;77.34;99537.72;4979917;28;45330;-72
2022/11/16 01:31:10;;;;;;;;;2.33;2.33;;;;;11.67;77.03;99631.41;4979870;28;45574;-71
2022/11/16 01:33:35;;;;;;;;;1.67;1.00;;;;;11.59;77.07;99623.44;4978162;28;46208;-71
2022/11/16 01:36:01;;;;;;;;;3.67;2.00;;;;;11.63;77.18;99651.41;4994672;28;45527;-72
2022/11/16 01:38:26;;;;;;;;;0.67;0.67;;;;;10.86;77.07;99512.22;4979917;28;45429;-71
2022/11/16 01:40:51;;;;;;;;;2.00;2.00;;;;;11.37;77.42;99603.00;4979908;28;45402;-71
2022/11/16 01:43:20;;;;;;;;;3.33;1.00;;;;;11.02;76.70;99544.03;4978738;28;68212;-72
2022/11/16 01:45:46;;;;;;;;;2.67;1.67;;;;;11.21;76.85;99586.16;4979248;28;45367;-70
2022/11/16 01:48:19;;;;;;;;;2.00;2.00;;;;;11.57;77.13;99638.78;4978230;28;45493;-70
2022/11/16 01:50:45;;;;;;;;;3.33;2.00;;;;;11.55;76.90;99636.28;4979419;28;45507;-72
2022/11/16 01:53:12;;;;;;;;;5.33;2.00;;;;;11.34;76.86;99606.00;4979351;28;45308;-70
2022/11/16 01:55:40;;;;;;;;;5.75;1.00;;;;;10.80;77.27;99520.88;4979174;28;45287;-72
2022/11/16 01:58:06;;;;;;;;;5.67;1.00;;;;;11.39;77.68;99622.25;4979363;28;45338;-72
2022/11/16 02:00:31;;;;;;;;;4.00;2.00;;;;;11.41;77.27;99621.09;4978230;28;45636;-71
2022/11/16 02:02:57;;;;;;;;;2.33;2.33;;;;;10.84;77.27;99543.50;4979061;28;46862;-72
2022/11/16 02:05:32;;;;;;;;;2.33;1.67;;;;;11.11;77.75;99587.38;4978945;28;52386;-70
2022/11/16 02:11:13;;;;;;;;;1.00;1.00;;;;;11.29;77.31;99633.16;4979203;28;45314;-71
2022/11/16 02:14:04;;;;;;;;;3.00;3.00;;;;;11.30;77.36;99626.00;4977285;28;47396;-72
2022/11/16 02:16:52;;;;;;;;;5.00;3.00;;;;;11.24;77.68;99631.03;4988991;28;45386;-71
2022/11/16 02:19:23;;;;;;;;;2.33;2.00;;;;;11.22;77.10;99632.19;4995939;28;45520;-73
2022/11/16 02:22:12;;;;;;;;;3.00;2.00;;;;;11.18;77.84;99623.72;4979772;28;45544;-70
2022/11/16 02:24:47;;;;;;;;;3.00;1.00;;;;;11.18;77.11;99631.69;4978934;28;46235;-70
2022/11/16 02:27:50;;;;;;;;;2.33;1.00;;;;;11.18;77.19;99626.38;4979198;28;45310;-71
2022/11/16 02:30:19;;;;;;;;;1.33;1.33;;;;;11.01;77.32;99608.84;4977756;28;45273;-71
2022/11/16 02:32:52;;;;;;;;;2.00;2.00;;;;;11.13;77.38;99625.25;4978925;28;45502;-71
2022/11/16 02:35:50;;;;;;;;;4.00;2.00;;;;;11.13;77.21;99631.41;4977200;28;46487;-71
2022/11/16 02:38:28;;;;;;;;;2.00;2.00;;;;;10.66;77.10;99563.19;4985763;28;45481;-72
2022/11/16 02:41:02;;;;;;;;;2.67;2.00;;;;;10.43;76.64;99505.66;4978552;28;45484;-71
2022/11/16 02:43:33;;;;;;;;;4.33;2.33;;;;;10.51;76.00;99527.69;4978871;28;45510;-71
2022/11/16 02:46:03;;;;;;;;;3.00;2.00;;;;;11.10;76.33;99623.78;4978516;28;46497;-71
2022/11/16 02:48:35;;;;;;;;;5.00;3.00;;;;;10.92;76.59;99604.59;4978847;28;45462;-71
2022/11/16 02:51:02;;;;;;;;;2.75;1.00;;;;;11.05;76.41;99630.63;4978204;28;45408;-70
2022/11/16 02:53:35;;;;;;;;;2.00;2.00;;;;;10.95;76.36;99622.84;4978588;28;45519;-72
2022/11/16 02:56:01;;;;;;;;;1.33;0.33;;;;;10.46;76.22;99523.91;4978064;28;46698;-70
2022/11/16 02:58:28;;;;;;;;;2.00;2.00;;;;;10.91;76.26;99598.44;4993229;28;45612;-71
2022/11/16 03:01:07;;;;;;;;;4.00;3.00;;;;;11.04;76.12;99623.66;4977854;28;45278;-70
2022/11/16 03:03:46;;;;;;;;;1.00;1.00;;;;;10.98;76.01;99625.16;4978479;28;45271;-72
2022/11/16 03:06:14;;;;;;;;;3.00;0.67;;;;;10.40;75.62;99535.22;4978202;28;45670;-73
2022/11/16 03:09:07;;;;;;;;;2.00;1.00;;;;;10.21;75.75;99483.31;4976832;28;45794;-71
2022/11/16 03:14:22;;;;;;;;;0.67;0.00;;;;;10.99;75.34;99605.53;4978117;28;45263;-71
2022/11/16 03:16:52;;;;;;;;;2.67;1.67;;;;;11.01;75.00;99614.16;4977884;28;46449;-72
2022/11/16 03:19:24;;;;;;;;;3.33;1.67;;;;;11.02;75.17;99610.53;4978074;28;45267;-73
2022/11/16 03:21:57;;;;;;;;;0.25;0.00;;;;;11.02;74.67;99610.53;4978315;28;45437;-72
2022/11/16 03:24:22;;;;;;;;;1.00;1.00;;;;;10.94;74.83;99599.91;4978191;28;45484;-71
2022/11/16 03:27:16;;;;;;;;;1.00;1.00;;;;;10.97;74.72;99597.75;4992840;28;46382;-71
2022/11/16 03:29:59;;;;;;;;;1.75;0.50;;;;;10.94;74.68;99602.59;4977950;28;45438;-71
2022/11/16 03:33:03;;;;;;;;;1.00;0.00;;;;;10.94;74.38;99598.09;4977935;28;45355;-71
2022/11/16 03:35:34;;;;;;;;;1.67;1.67;;;;;10.96;74.70;99587.28;4976229;28;45494;-71
2022/11/16 03:38:04;;;;;;;;;2.00;1.67;;;;;10.88;74.82;99574.03;4977522;28;45537;-71
2022/11/16 03:40:33;;;;;;;;;2.67;2.67;;;;;10.64;74.66;99535.94;4992527;28;45278;-71
2022/11/16 03:43:00;;;;;;;;;1.00;1.00;;;;;10.65;74.21;99552.72;4977878;28;45345;-72
2022/11/16 03:45:26;;;;;;;;;1.00;1.00;;;;;10.12;75.03;99468.41;4977944;28;46010;-70
2022/11/16 03:47:51;;;;;;;;;2.33;1.00;;;;;10.78;75.18;99581.38;4977688;28;46159;-71
2022/11/16 03:50:16;;;;;;;;;4.00;1.00;;;;;10.88;75.20;99600.63;4977632;28;45204;-72
2022/11/16 03:52:42;;;;;;;;;2.00;1.00;;;;;10.90;74.87;99577.34;4980150;28;45223;-71
2022/11/16 03:55:08;;;;;;;;;0.00;0.00;;;;;10.90;75.12;99582.66;4978050;28;45135;-72
2022/11/16 03:57:33;;;;;;;;;0.67;0.67;;;;;10.29;74.99;99470.84;4977348;28;45361;-70
2022/11/16 03:59:58;;;;;;;;;0.67;0.00;;;;;10.92;75.20;99564.69;4977474;28;45338;-72
2022/11/16 04:02:24;;;;;;;;;1.00;1.00;;;;;10.59;74.88;99525.00;4978357;28;45511;-70
2022/11/16 04:24:15;;;;;;;;;1.00;1.00;;;;;10.64;76.31;99559.88;4980768;28;45476;-71
2022/11/16 04:29:28;;;;;;;;;1.67;1.00;;;;;10.12;76.74;99477.19;4980482;28;45677;-71
2022/11/16 04:40:08;;;;;;;;;1.67;1.67;;;;;10.40;76.80;99504.16;4980183;28;45726;-72
2022/11/16 04:42:33;;;;;;;;;2.67;2.67;;;;;10.29;76.97;99480.63;4978873;28;46150;-72
2022/11/16 04:47:43;;;;;;;;;5.00;2.00;;;;;10.52;76.67;99516.06;4980701;28;45490;-72
2022/11/16 04:50:08;;;;;;;;;1.33;0.00;;;;;10.56;76.62;99506.72;4978994;28;48394;-69
2022/11/16 04:52:34;;;;;;;;;3.67;1.00;;;;;10.40;76.55;99474.94;4979021;28;45478;-70
2022/11/16 04:54:59;;;;;;;;;1.00;1.00;;;;;10.90;76.46;99542.78;4980359;28;45402;-73
2022/11/16 04:57:24;;;;;;;;;2.00;2.00;;;;;10.65;76.45;99487.09;4978813;28;45319;-72
2022/11/16 04:59:50;;;;;;;;;3.67;2.67;;;;;11.06;76.21;99553.31;4980084;28;45904;-71
2022/11/16 05:02:15;;;;;;;;;2.67;1.33;;;;;11.07;76.28;99544.34;4979456;28;50450;-69
2022/11/16 05:04:42;;;;;;;;;2.00;1.00;;;;;11.05;76.50;99543.69;4980127;28;45232;-74
2022/11/16 05:07:11;;;;;;;;;2.33;1.00;;;;;11.00;75.98;99550.50;4980465;28;45591;-71
2022/11/16 05:09:41;;;;;;;;;6.00;3.00;;;;;10.98;76.45;99540.88;4980004;28;45617;-73
2022/11/16 05:12:15;;;;;;;;;2.67;2.00;;;;;10.95;76.76;99533.25;4979642;28;46237;-71
2022/11/16 05:14:41;;;;;;;;;1.00;1.00;;;;;10.36;76.83;99447.06;4979977;28;45484;-72
2022/11/16 05:17:06;;;;;;;;;1.67;1.33;;;;;10.92;77.17;99530.13;4980226;28;45386;-72
2022/11/16 05:22:16;;;;;;;;;1.00;1.00;;;;;11.09;77.07;99547.66;4979508;28;45365;-72
2022/11/16 05:24:41;;;;;;;;;2.00;2.00;;;;;11.02;76.97;99536.06;4979792;28;45294;-73
2022/11/16 05:27:13;;;;;;;;;3.33;1.00;;;;;11.17;76.80;99550.25;4979964;28;45599;-73
2022/11/16 05:29:38;;;;;;;;;3.00;1.67;;;;;11.21;76.22;99545.38;4979475;28;45852;-71
2022/11/16 05:32:05;;;;;;;;;2.33;2.33;;;;;11.13;76.88;99537.47;4978330;28;45403;-73
2022/11/16 05:34:30;;;;;;;;;1.00;1.00;;;;;10.91;76.55;99497.41;4979320;28;45312;-71
2022/11/16 05:36:56;;;;;;;;;2.00;2.00;;;;;11.06;76.66;99526.72;4979374;28;45405;-72
2022/11/16 05:39:23;;;;;;;;;2.33;1.33;;;;;10.84;76.43;99479.69;4979093;28;46304;-72
2022/11/16 05:41:48;;;;;;;;;2.33;1.00;;;;;11.22;76.18;99539.09;4979462;28;45527;-72
2022/11/16 05:44:14;;;;;;;;;2.00;2.00;;;;;11.11;76.30;99527.00;4979541;28;45459;-70
2022/11/16 05:46:40;;;;;;;;;1.00;1.00;;;;;11.09;76.70;99505.09;4982828;28;45207;-72
2022/11/16 05:49:06;;;;;;;;;3.00;1.00;;;;;11.05;76.62;99493.16;4980422;28;45551;-71
2022/11/16 05:51:33;;;;;;;;;2.67;2.00;;;;;11.22;76.82;99523.13;4979218;28;45293;-72
2022/11/16 05:53:58;;;;;;;;;4.33;4.33;;;;;10.90;76.90;99490.44;4979303;28;45517;-70
2022/11/16 05:56:24;;;;;;;;;1.33;1.00;;;;;11.11;77.28;99532.34;4994372;28;45580;-70
2022/11/16 05:58:49;;;;;;;;;3.00;3.00;;;;;10.99;77.37;99501.81;4978892;28;45405;-71
2022/11/16 06:01:15;;;;;;;;;4.00;2.67;;;;;11.06;77.71;99521.41;4979180;28;45460;-72
2022/11/16 06:03:40;;;;;;;;;2.67;2.00;;;;;10.13;77.40;99369.13;4979160;28;45436;-71
2022/11/16 06:06:05;;;;;;;;;3.00;3.00;;;;;11.02;77.31;99525.44;4979411;28;45404;-71
2022/11/16 06:08:31;;;;;;;;;2.00;1.00;;;;;10.89;77.38;99494.09;4977496;28;45973;-71
2022/11/16 06:11:00;;;;;;;;;2.67;1.67;;;;;10.96;77.57;99510.16;4978648;28;45547;-69
2022/11/16 06:13:26;;;;;;;;;3.25;1.75;;;;;11.01;77.73;99521.09;4979047;28;45533;-71
2022/11/16 06:15:51;;;;;;;;;7.00;3.00;;;;;11.06;77.69;99541.84;4979114;28;46429;-71
2022/11/16 06:18:16;;;;;;;;;3.67;2.33;;;;;10.97;77.43;99533.09;4978734;28;50370;-71
2022/11/16 06:20:42;;;;;;;;;2.00;2.00;;;;;10.53;77.58;99461.09;4978582;28;45475;-72
2022/11/16 06:23:07;;;;;;;;;4.00;2.33;;;;;11.02;77.87;99541.38;4993835;28;45413;-72
2022/11/16 06:25:32;;;;;;;;;3.00;3.00;;;;;10.81;77.60;99510.09;4994090;28;45349;-70
2022/11/16 06:27:58;;;;;;;;;6.00;4.00;;;;;10.94;77.85;99544.06;4993586;28;46629;-72
2022/11/16 06:30:24;;;;;;;;;3.00;1.33;;;;;10.93;78.08;99532.63;4993592;28;45388;-72
2022/11/16 06:32:50;;;;;;;;;1.00;1.00;;;;;10.26;77.97;99430.53;4979033;28;45631;-72
2022/11/16 06:35:16;;;;;;;;;3.00;3.00;;;;;10.55;77.73;99475.03;4979074;28;45697;-71
2022/11/16 06:37:42;;;;;;;;;2.00;2.00;;;;;10.69;78.09;99513.31;4993154;28;47687;-73
2022/11/16 06:40:08;;;;;;;;;1.33;1.33;;;;;10.79;78.04;99527.22;4978646;28;45282;-72
2022/11/16 06:42:34;;;;;;;;;3.00;3.00;;;;;10.84;78.24;99524.88;4959731;28;45278;-70
2022/11/16 06:44:59;;;;;;;;;1.33;1.00;;;;;10.86;77.99;99530.84;4976125;28;45293;-72
2022/11/16 06:47:24;;;;;;;;;2.00;2.00;;;;;10.85;77.89;99534.50;4975749;28;48548;-72
2022/11/16 06:49:50;;;;;;;;;4.33;3.33;;;;;10.66;78.44;99515.34;4976828;28;45564;-72
2022/11/16 06:52:15;;;;;;;;;4.67;2.00;;;;;10.33;78.37;99450.91;4978460;28;45321;-73
2022/11/16 06:54:40;;;;;;;;;1.67;1.67;;;;;10.76;78.27;99527.56;4978645;28;45205;-73
2022/11/16 06:57:06;;;;;;;;;2.00;2.00;;;;;10.62;78.46;99507.88;4975678;28;60475;-74
2022/11/16 06:59:31;;;;;;;;;3.00;2.00;;;;;10.70;78.96;99522.97;4978331;28;45233;-73
2022/11/16 07:01:56;;;;;;;;;2.00;1.00;;;;;9.98;78.63;99409.69;4978081;28;45224;-72
2022/11/16 07:04:22;;;;;;;;;3.00;2.00;;;;;10.70;79.01;99520.28;4977699;28;47939;-72
2022/11/16 07:06:47;;;;;;;;;1.67;0.00;;;;;10.43;78.72;99469.28;4975406;28;47359;-72
2022/11/16 07:09:13;;;;;;;;;4.67;3.67;;;;;10.85;79.43;99534.50;4991976;28;45452;-73
2022/11/16 07:11:39;;;;;;;;;3.67;2.00;;;;;10.90;78.74;99537.47;4993306;28;45433;-72
2022/11/16 07:14:04;;;;;;;;;3.00;3.00;;;;;10.95;78.56;99540.41;4977488;28;45556;-73
2022/11/16 07:16:29;;;;;;;;;3.67;2.00;;;;;10.90;78.55;99519.69;4977748;28;46510;-73
2022/11/16 07:18:56;;;;;;;;;3.67;3.00;;;;;10.59;79.16;99476.31;4978689;28;45496;-74
2022/11/16 07:21:22;;;;;;;;;2.67;2.67;;;;;11.02;78.55;99551.19;4976175;28;46304;-77
2022/11/16 07:23:47;;;;;;;;;6.33;3.00;;;;;10.75;79.28;99501.97;4976914;28;45469;-74
2022/11/16 07:26:13;;;;;;;;;4.00;3.00;;;;;10.77;78.95;99499.97;4958869;28;45618;-74
2022/11/16 07:28:38;;;;;;;;;4.33;3.00;;;;;10.37;78.95;99424.81;4958284;28;45401;-75
2022/11/16 07:31:06;;;;;;;;;4.33;3.00;;;;;10.97;79.33;99515.28;4962673;28;45496;-76
2022/11/16 07:33:32;;;;;;;;;3.50;3.50;;;;;10.72;78.58;99465.94;4978677;28;45606;-75
2022/11/16 07:36:04;;;;;;;;;3.00;3.00;;;;;11.00;78.87;99506.13;4977670;28;45782;-73
2022/11/16 07:38:30;;;;;;;;;5.00;4.00;;;;;10.24;78.75;99366.94;4992798;28;45634;-73
2022/11/16 07:41:07;;;;;;;;;4.33;3.00;;;;;11.04;78.79;99491.50;4978334;28;45266;-74
2022/11/16 07:43:36;;;;;;;;;5.33;4.33;;;;;11.22;78.81;99509.81;4977986;28;45493;-73
2022/11/16 07:46:22;;;;;;;;;5.00;3.00;;;;;11.42;78.60;99536.78;4976637;28;46266;-73
2022/11/16 07:48:47;;;;;;;;;3.67;3.00;;;;;11.36;78.15;99532.16;4977781;28;45422;-74
2022/11/16 07:51:15;;;;;;;;;3.33;2.67;;;;;11.44;78.37;99542.75;4978587;28;45536;-75
2022/11/16 07:53:42;;;;;;;;;7.33;6.33;;;;;11.33;78.42;99492.59;4976998;28;45273;-73
2022/11/16 07:56:08;;;;;;;;;6.00;6.00;;;;;11.52;78.27;99518.72;4975352;28;45725;-74
2022/11/16 07:58:35;;;;;;;;;7.33;5.00;;;;;10.81;77.88;99392.28;4974804;28;45590;-76
2022/11/16 08:01:13;;;;;;;;;4.00;2.67;;;;;11.65;77.87;99526.91;4975772;28;45456;-75
2022/11/16 08:03:39;;;;;;;;;5.00;3.67;;;;;11.73;77.99;99531.34;4975660;28;45274;-75
2022/11/16 08:06:06;;;;;;;;;4.67;4.00;;;;;11.56;77.43;99504.84;4976151;28;46576;-74
2022/11/16 08:08:32;;;;;;;;;6.00;6.00;;;;;11.45;77.52;99483.19;4962553;28;45580;-73
2022/11/16 08:11:03;;;;;;;;;4.00;2.33;;;;;11.76;77.77;99537.13;4985457;28;45511;-72
2022/11/16 08:13:33;;;;;;;;;3.00;3.00;;;;;10.77;77.60;99367.06;4976363;28;45295;-73
2022/11/16 08:16:08;;;;;;;;;5.33;5.33;;;;;11.88;77.62;99548.19;4977075;28;46033;-74
2022/11/16 08:18:34;;;;;;;;;2.33;2.33;;;;;11.39;77.63;99468.75;4979661;28;45477;-74
2022/11/16 08:21:00;;;;;;;;;4.33;3.00;;;;;11.90;77.60;99537.38;4968715;28;45298;-72
2022/11/16 08:23:27;;;;;;;;;6.00;5.33;;;;;11.96;77.70;99534.78;4978885;28;45411;-76
2022/11/16 08:26:01;;;;;;;;;5.67;3.00;;;;;12.01;77.65;99537.72;4978124;28;47976;-75
2022/11/16 08:28:27;;;;;;;;;5.00;4.33;;;;;12.06;77.18;99542.53;4975830;28;45376;-73
2022/11/16 08:30:53;;;;;;;;;6.33;5.00;;;;;12.12;76.75;99539.13;4990802;28;45627;-73
2022/11/16 08:33:20;;;;;;;;;6.00;5.67;;;;;12.03;76.82;99525.06;4977139;28;45555;-72
2022/11/16 08:35:56;;;;;;;;;12.00;12.00;;;;;11.93;76.99;99516.50;4976311;28;47043;-73
2022/11/16 08:38:21;;;;;;;;;4.67;3.33;;;;;12.05;76.61;99527.56;4977577;28;45253;-72
2022/11/16 08:40:49;;;;;;;;;5.25;5.25;;;;;11.91;76.99;99507.06;4991858;28;45457;-73
2022/11/16 08:43:15;;;;;;;;;6.67;5.67;;;;;12.17;76.74;99536.72;4975568;28;45261;-73
2022/11/16 08:45:40;;;;;;;;;7.00;6.00;;;;;11.58;76.94;99452.25;4977012;28;46631;-74
2022/11/16 08:48:05;;;;;;;;;7.33;7.33;;;;;11.86;77.13;99492.44;4991894;28;45814;-73
2022/11/16 08:50:31;;;;;;;;;8.00;6.00;;;;;12.24;77.21;99532.34;4976880;28;45398;-74
2022/11/16 08:52:57;;;;;;;;;6.00;3.33;;;;;12.18;77.37;99527.72;4977484;28;45313;-73
2022/11/16 08:55:23;;;;;;;;;7.00;6.00;;;;;11.25;77.00;99377.28;4976137;28;46190;-73
2022/11/16 08:57:48;;;;;;;;;5.33;4.00;;;;;12.16;77.37;99532.41;4976701;28;45298;-72
2022/11/16 09:00:14;;;;;;;;;5.33;3.33;;;;;12.03;77.63;99495.78;4978820;28;46566;-74
2022/11/16 09:02:40;;;;;;;;;4.33;3.33;;;;;12.25;77.76;99522.50;4978967;28;45264;-74
2022/11/16 09:05:06;;;;;;;;;4.33;4.33;;;;;11.67;77.79;99402.44;4972799;28;45686;-73
2022/11/16 09:07:32;;;;;;;;;4.00;4.00;;;;;11.53;77.42;99376.63;4968620;28;45564;-72
2022/11/16 09:09:57;;;;;;;;;4.33;3.67;;;;;12.44;77.56;99512.09;4975624;28;45520;-71
2022/11/16 09:12:23;;;;;;;;;4.00;2.33;;;;;11.81;77.21;99398.97;4996294;28;45616;-74
2022/11/16 09:14:48;;;;;;;;;5.33;5.00;;;;;12.43;77.01;99486.47;4980797;28;45334;-75
2022/11/16 09:17:13;;;;;;;;;7.67;6.00;;;;;12.56;76.88;99499.09;4977479;28;45345;-73
2022/11/16 09:19:39;;;;;;;;;9.67;8.00;;;;;12.24;76.50;99441.72;4993905;28;45419;-75
2022/11/16 09:22:04;;;;;;;;;8.67;5.67;;;;;11.78;76.05;99377.16;4965022;28;45374;-75
2022/11/16 09:24:30;;;;;;;;;7.00;5.00;;;;;11.81;76.04;99379.50;4978817;28;48035;-75
2022/11/16 09:26:59;;;;;;;;;4.00;3.00;;;;;12.70;76.19;99532.09;4973581;28;45402;-77
2022/11/16 09:29:26;;;;;;;;;6.00;6.00;;;;;12.72;76.03;99525.56;4972556;28;45459;-73
2022/11/16 09:31:51;;;;;;;;;4.00;2.33;;;;;12.77;75.86;99519.66;4979418;28;45628;-72
2022/11/16 09:34:17;;;;;;;;;5.00;2.33;;;;;12.54;75.68;99473.66;4978110;28;47523;-73
2022/11/16 09:36:42;;;;;;;;;3.50;3.00;;;;;12.81;75.71;99515.59;4979922;28;45450;-74
2022/11/16 09:39:07;;;;;;;;;5.67;4.00;;;;;12.84;75.66;99511.75;4976818;28;45619;-73
2022/11/16 09:41:41;;;;;;;;;5.00;2.00;;;;;12.25;75.58;99405.25;4979162;28;45449;-74
2022/11/16 09:44:41;;;;;;;;;4.00;2.67;;;;;12.91;75.34;99501.97;4977379;28;49146;-73
2022/11/16 09:47:39;;;;;;;;;4.33;4.00;;;;;12.70;75.44;99460.91;4977841;28;45376;-72
2022/11/16 09:50:07;;;;;;;;;3.00;3.00;;;;;12.59;75.51;99444.56;4977101;28;45609;-72
2022/11/16 09:52:43;;;;;;;;;4.67;4.67;;;;;12.97;75.52;99496.69;4978675;28;45496;-72
2022/11/16 09:55:24;;;;;;;;;6.33;2.33;;;;;12.28;75.59;99373.72;4970302;28;46534;-76
2022/11/16 09:57:54;;;;;;;;;3.67;3.33;;;;;13.10;75.39;99507.50;4978570;28;45639;-72
2022/11/16 10:00:22;;;;;;;;;5.00;4.00;;;;;13.19;74.95;99504.72;4978846;28;45517;-73
2022/11/16 10:03:00;;;;;;;;;4.00;2.00;;;;;13.19;74.74;99483.38;4976415;28;45454;-71
2022/11/16 10:06:08;;;;;;;;;3.00;3.00;;;;;13.19;74.48;99478.84;4968359;28;45370;-72
2022/11/16 10:08:44;;;;;;;;;4.00;2.75;;;;;13.29;74.17;99497.22;4975565;28;45470;-72
2022/11/16 10:11:31;;;;;;;;;2.75;2.00;;;;;13.40;74.11;99475.34;4978172;28;45445;-72
2022/11/16 10:14:19;;;;;;;;;3.33;3.33;;;;;12.78;73.58;99369.28;4971973;28;45493;-71
2022/11/16 10:17:03;;;;;;;;;5.33;3.00;;;;;13.46;73.72;99471.91;4978639;28;45599;-73
2022/11/16 10:19:55;;;;;;;;;6.25;2.75;;;;;13.49;73.32;99476.88;4979213;28;45207;-72
2022/11/16 10:22:33;;;;;;;;;4.25;3.00;;;;;13.53;72.89;99496.00;4969442;28;45595;-73
2022/11/16 10:25:06;;;;;;;;;4.00;2.00;;;;;13.59;73.25;99493.34;4971943;28;45474;-70
2022/11/16 10:27:59;;;;;;;;;4.00;4.00;;;;;13.67;72.85;99503.91;4978802;28;46444;-73
2022/11/16 10:30:36;;;;;;;;;2.00;2.00;;;;;13.43;72.28;99452.78;4978368;28;45357;-72
2022/11/16 10:33:21;;;;;;;;;3.00;3.00;;;;;13.76;72.67;99491.22;4992289;28;45516;-71
2022/11/16 10:35:52;;;;;;;;;5.00;1.50;;;;;12.92;71.55;99362.22;4979056;28;45300;-70
2022/11/16 10:38:26;;;;;;;;;3.00;2.00;;;;;13.86;71.22;99509.59;4987657;28;45973;-75
2022/11/16 10:41:13;;;;;;;;;3.00;2.00;;;;;13.82;70.55;99492.31;5014761;28;45286;-71
2022/11/16 10:43:41;;;;;;;;;2.50;1.00;;;;;13.90;70.74;99500.16;4997323;28;45385;-72
2022/11/16 10:46:18;;;;;;;;;3.67;3.00;;;;;13.96;70.77;99494.03;4964317;28;45477;-72
2022/11/16 10:48:52;;;;;;;;;3.50;1.75;;;;;13.96;70.36;99486.84;4972806;28;45710;-71
2022/11/16 10:51:18;;;;;;;;;6.00;4.00;;;;;13.87;70.42;99460.50;4977119;28;45378;-72
2022/11/16 10:53:44;;;;;;;;;4.00;2.25;;;;;14.07;69.74;99474.78;4979244;28;45264;-71
2022/11/16 10:56:10;;;;;;;;;4.00;2.00;;;;;14.11;69.99;99465.34;4979125;28;45417;-70
2022/11/16 10:59:02;;;;;;;;;5.00;2.00;;;;;14.12;69.46;99458.97;4977053;28;47309;-71
2022/11/16 11:01:40;;;;;;;;;1.25;1.00;;;;;13.93;69.65;99430.31;4977019;28;45523;-71
2022/11/16 11:04:16;;;;;;;;;3.25;2.25;;;;;13.91;68.70;99430.50;4977026;28;45521;-71
2022/11/16 11:06:46;;;;;;;;;3.75;1.00;;;;;14.18;68.67;99454.69;4978689;28;45346;-71
2022/11/16 11:09:26;;;;;;;;;3.25;1.50;;;;;13.43;68.89;99333.47;4993184;28;48533;-72
2022/11/16 11:15:05;;;;;;;;;2.25;1.00;;;;;13.55;68.68;99329.22;4978207;28;45499;-70
2022/11/16 11:17:33;;;;;;;;;2.00;2.00;;;;;14.28;68.47;99461.31;4988871;28;45428;-70
2022/11/16 11:20:21;;;;;;;;;4.75;3.75;;;;;14.36;68.83;99454.13;4986917;28;48901;-71
2022/11/16 11:23:23;;;;;;;;;2.75;2.00;;;;;14.48;68.03;99452.56;4983198;28;45520;-71
2022/11/16 11:25:51;;;;;;;;;4.00;2.50;;;;;14.53;67.71;99444.78;4957064;28;46087;-71
2022/11/16 11:28:35;;;;;;;;;2.75;2.00;;;;;14.10;67.39;99367.47;4978234;28;45782;-72
2022/11/16 11:31:02;;;;;;;;;5.50;3.00;;;;;13.91;67.21;99328.16;4978558;28;46728;-70
2022/11/16 11:33:35;;;;;;;;;6.33;4.33;;;;;13.66;66.62;99272.59;4977272;28;45555;-72
2022/11/16 11:36:00;;;;;;;;;1.75;1.25;;;;;14.57;66.73;99422.75;4993831;28;45475;-71
2022/11/16 11:38:26;;;;;;;;;4.67;3.00;;;;;14.64;66.46;99438.84;4978370;28;45415;-72
2022/11/16 11:41:00;;;;;;;;;1.50;1.50;;;;;14.22;66.01;99362.38;4977787;28;45793;-72
2022/11/16 11:43:27;;;;;;;;;5.00;2.67;;;;;14.71;65.96;99420.94;4992770;28;45577;-72
2022/11/16 11:46:14;;;;;;;;;2.00;2.00;;;;;14.04;65.43;99308.69;4977156;28;45248;-73
2022/11/16 11:48:48;;;;;;;;;3.50;3.00;;;;;14.33;65.51;99364.47;4979429;28;45443;-71
2022/11/16 11:51:30;;;;;;;;;2.50;2.00;;;;;14.66;65.57;99412.72;4977042;28;45500;-72
2022/11/16 11:53:57;;;;;;;;;1.00;1.00;;;;;14.20;65.50;99322.47;4976688;28;45427;-73
2022/11/16 11:56:24;;;;;;;;;4.75;4.00;;;;;14.65;64.94;99394.19;4992759;28;45361;-72
2022/11/16 11:58:51;;;;;;;;;1.50;1.25;;;;;14.82;64.78;99417.69;4977382;28;45298;-72
2022/11/16 12:01:37;;;;;;;;;5.25;4.50;;;;;14.81;64.50;99405.31;4976327;28;45676;-71
2022/11/16 12:04:31;;;;;;;;;3.00;2.00;;;;;14.13;64.12;99288.75;4978011;28;45547;-72
2022/11/16 12:07:34;;;;;;;;;3.75;2.50;;;;;14.85;64.09;99401.22;4974988;28;50280;-71
2022/11/16 12:10:21;;;;;;;;;5.00;2.75;;;;;14.87;63.94;99401.84;4978208;28;45297;-72
2022/11/16 12:13:04;;;;;;;;;2.00;2.00;;;;;14.72;63.80;99395.84;4975795;28;46112;-71
2022/11/16 12:16:04;;;;;;;;;2.75;2.75;;;;;14.79;63.61;99396.66;4975818;28;45319;-71
2022/11/16 12:18:49;;;;;;;;;3.50;1.50;;;;;14.83;63.84;99402.47;4977507;28;45305;-71
2022/11/16 12:21:23;;;;;;;;;1.75;1.75;;;;;14.46;63.58;99342.31;4970305;28;45475;-72
2022/11/16 12:23:51;;;;;;;;;4.00;2.25;;;;;14.91;63.36;99388.88;4977502;28;46445;-72
2022/11/16 12:26:27;;;;;;;;;5.00;3.25;;;;;14.95;63.71;99389.28;4977958;28;45267;-72
2022/11/16 12:29:11;;;;;;;;;4.50;2.75;;;;;14.82;63.35;99390.94;4976606;28;45494;-71
2022/11/16 12:31:50;;;;;;;;;5.25;3.25;;;;;14.86;63.99;99378.78;4977625;28;45587;-72
2022/11/16 12:34:36;;;;;;;;;2.75;2.75;;;;;14.86;63.76;99365.41;4989583;28;46572;-70
2022/11/16 12:37:04;;;;;;;;;4.50;3.00;;;;;14.89;63.64;99375.69;5001426;28;45508;-70